sensor_id;sensor_type;location;lat;lon;timestamp;P1;durP1;ratioP1;P2;durP2;ratioP2
70757;SDS011;59316;52.964;7.102;2023-05-29T00:01:27;22.27;;;3.58;;
70757;SDS011;59316;52.964;7.102;2023-05-29T00:06:48;16.27;;;3.47;;
70757;SDS011;59316;52.964;7.102;2023-05-29T00:12:10;24.10;;;3.20;;
70757;SDS011;59316;52.964;7.102;2023-05-29T00:17:31;15.40;;;2.75;;
70757;SDS011;59316;52.964;7.102;2023-05-29T00:22:53;19.52;;;3.20;;
70757;SDS011;59316;52.964;7.102;2023-05-29T00:28:14;16.20;;;2.78;;
70757;SDS011;59316;52.964;7.102;2023-05-29T00:33:36;21.25;;;3.22;;
70757;SDS011;59316;52.964;7.102;2023-05-29T00:38:57;16.95;;;3.40;;
70757;SDS011;59316;52.964;7.102;2023-05-29T00:44:19;19.25;;;3.20;;
70757;SDS011;59316;52.964;7.102;2023-05-29T00:49:43;15.65;;;2.70;;
70757;SDS011;59316;52.964;7.102;2023-05-29T00:55:05;23.27;;;4.22;;
70757;SDS011;59316;52.964;7.102;2023-05-29T01:00:26;19.55;;;2.60;;
70757;SDS011;59316;52.964;7.102;2023-05-29T01:05:48;26.00;;;3.17;;
70757;SDS011;59316;52.964;7.102;2023-05-29T01:11:17;13.70;;;2.88;;
70757;SDS011;59316;52.964;7.102;2023-05-29T01:17:01;14.85;;;3.47;;
70757;SDS011;59316;52.964;7.102;2023-05-29T01:22:47;17.35;;;2.85;;
70757;SDS011;59316;52.964;7.102;2023-05-29T01:28:47;15.90;;;2.95;;
70757;SDS011;59316;52.964;7.102;2023-05-29T01:34:10;14.27;;;2.90;;
70757;SDS011;59316;52.964;7.102;2023-05-29T01:39:31;25.15;;;3.15;;
70757;SDS011;59316;52.964;7.102;2023-05-29T01:44:54;16.02;;;2.72;;
70757;SDS011;59316;52.964;7.102;2023-05-29T01:50:17;13.98;;;3.28;;
70757;SDS011;59316;52.964;7.102;2023-05-29T01:55:39;17.58;;;3.28;;
70757;SDS011;59316;52.964;7.102;2023-05-29T02:01:01;9.60;;;2.50;;
70757;SDS011;59316;52.964;7.102;2023-05-29T02:06:23;12.25;;;2.95;;
70757;SDS011;59316;52.964;7.102;2023-05-29T02:11:45;17.13;;;2.95;;
70757;SDS011;59316;52.964;7.102;2023-05-29T02:17:06;15.93;;;2.60;;
70757;SDS011;59316;52.964;7.102;2023-05-29T02:22:28;15.48;;;2.67;;
70757;SDS011;59316;52.964;7.102;2023-05-29T02:27:51;14.10;;;2.80;;
70757;SDS011;59316;52.964;7.102;2023-05-29T02:33:13;10.52;;;2.40;;
70757;SDS011;59316;52.964;7.102;2023-05-29T02:38:34;17.13;;;2.88;;
70757;SDS011;59316;52.964;7.102;2023-05-29T02:43:55;14.27;;;2.10;;
70757;SDS011;59316;52.964;7.102;2023-05-29T02:49:17;12.70;;;2.67;;
70757;SDS011;59316;52.964;7.102;2023-05-29T02:54:39;10.55;;;2.50;;
70757;SDS011;59316;52.964;7.102;2023-05-29T03:00:00;7.75;;;3.10;;
70757;SDS011;59316;52.964;7.102;2023-05-29T03:05:22;15.32;;;3.20;;
70757;SDS011;59316;52.964;7.102;2023-05-29T03:10:45;11.80;;;2.25;;
70757;SDS011;59316;52.964;7.102;2023-05-29T03:16:07;14.82;;;2.80;;
70757;SDS011;59316;52.964;7.102;2023-05-29T03:21:30;13.85;;;2.88;;
70757;SDS011;59316;52.964;7.102;2023-05-29T03:26:52;13.90;;;3.60;;
70757;SDS011;59316;52.964;7.102;2023-05-29T03:32:13;13.70;;;2.72;;
70757;SDS011;59316;52.964;7.102;2023-05-29T03:37:35;14.82;;;3.35;;
70757;SDS011;59316;52.964;7.102;2023-05-29T03:42:56;13.63;;;2.75;;
70757;SDS011;59316;52.964;7.102;2023-05-29T03:48:18;18.38;;;3.78;;
70757;SDS011;59316;52.964;7.102;2023-05-29T03:53:41;22.02;;;3.50;;
70757;SDS011;59316;52.964;7.102;2023-05-29T03:59:02;14.40;;;3.03;;
70757;SDS011;59316;52.964;7.102;2023-05-29T04:04:25;12.80;;;2.88;;
70757;SDS011;59316;52.964;7.102;2023-05-29T04:09:47;22.02;;;4.20;;
70757;SDS011;59316;52.964;7.102;2023-05-29T04:15:08;21.58;;;3.08;;
70757;SDS011;59316;52.964;7.102;2023-05-29T04:20:30;15.90;;;3.10;;
70757;SDS011;59316;52.964;7.102;2023-05-29T04:25:52;26.55;;;4.18;;
70757;SDS011;59316;52.964;7.102;2023-05-29T04:31:18;27.88;;;4.03;;
70757;SDS011;59316;52.964;7.102;2023-05-29T04:36:39;12.90;;;3.78;;
70757;SDS011;59316;52.964;7.102;2023-05-29T04:42:04;20.17;;;3.88;;
70757;SDS011;59316;52.964;7.102;2023-05-29T04:47:27;17.33;;;3.65;;
70757;SDS011;59316;52.964;7.102;2023-05-29T04:52:48;12.07;;;3.25;;
70757;SDS011;59316;52.964;7.102;2023-05-29T04:58:09;19.63;;;3.17;;
70757;SDS011;59316;52.964;7.102;2023-05-29T05:03:31;13.73;;;2.97;;
70757;SDS011;59316;52.964;7.102;2023-05-29T05:08:53;17.15;;;3.85;;
70757;SDS011;59316;52.964;7.102;2023-05-29T05:14:14;12.65;;;2.47;;
70757;SDS011;59316;52.964;7.102;2023-05-29T05:19:36;9.55;;;2.38;;
70757;SDS011;59316;52.964;7.102;2023-05-29T05:24:58;11.88;;;2.20;;
70757;SDS011;59316;52.964;7.102;2023-05-29T05:30:19;13.35;;;2.63;;
70757;SDS011;59316;52.964;7.102;2023-05-29T05:35:41;14.63;;;2.65;;
70757;SDS011;59316;52.964;7.102;2023-05-29T05:41:03;10.70;;;3.00;;
70757;SDS011;59316;52.964;7.102;2023-05-29T05:46:25;15.50;;;2.25;;
70757;SDS011;59316;52.964;7.102;2023-05-29T05:51:47;9.77;;;3.05;;
70757;SDS011;59316;52.964;7.102;2023-05-29T05:57:11;12.43;;;2.13;;
70757;SDS011;59316;52.964;7.102;2023-05-29T06:02:32;11.35;;;2.47;;
70757;SDS011;59316;52.964;7.102;2023-05-29T06:07:54;13.20;;;2.63;;
70757;SDS011;59316;52.964;7.102;2023-05-29T06:13:15;14.88;;;2.70;;
70757;SDS011;59316;52.964;7.102;2023-05-29T06:18:42;11.15;;;2.92;;
70757;SDS011;59316;52.964;7.102;2023-05-29T06:24:04;12.77;;;2.92;;
70757;SDS011;59316;52.964;7.102;2023-05-29T06:29:25;13.20;;;2.45;;
70757;SDS011;59316;52.964;7.102;2023-05-29T06:34:46;11.95;;;2.42;;
70757;SDS011;59316;52.964;7.102;2023-05-29T06:40:08;13.20;;;3.63;;
70757;SDS011;59316;52.964;7.102;2023-05-29T06:45:29;11.70;;;2.40;;
70757;SDS011;59316;52.964;7.102;2023-05-29T06:50:50;13.57;;;2.40;;
70757;SDS011;59316;52.964;7.102;2023-05-29T06:56:31;16.58;;;2.85;;
70757;SDS011;59316;52.964;7.102;2023-05-29T07:01:52;13.20;;;2.75;;
70757;SDS011;59316;52.964;7.102;2023-05-29T07:07:13;11.00;;;2.20;;
70757;SDS011;59316;52.964;7.102;2023-05-29T07:12:34;12.73;;;2.20;;
70757;SDS011;59316;52.964;7.102;2023-05-29T07:17:57;11.38;;;2.25;;
70757;SDS011;59316;52.964;7.102;2023-05-29T07:28:42;8.75;;;2.30;;
70757;SDS011;59316;52.964;7.102;2023-05-29T07:34:04;9.15;;;2.50;;
70757;SDS011;59316;52.964;7.102;2023-05-29T07:39:25;18.15;;;3.10;;
70757;SDS011;59316;52.964;7.102;2023-05-29T07:44:47;12.63;;;2.45;;
70757;SDS011;59316;52.964;7.102;2023-05-29T07:50:08;11.60;;;2.50;;
70757;SDS011;59316;52.964;7.102;2023-05-29T07:55:29;12.05;;;2.60;;
70757;SDS011;59316;52.964;7.102;2023-05-29T08:00:50;15.35;;;3.38;;
70757;SDS011;59316;52.964;7.102;2023-05-29T08:06:12;13.68;;;2.65;;
70757;SDS011;59316;52.964;7.102;2023-05-29T08:11:33;14.77;;;2.67;;
70757;SDS011;59316;52.964;7.102;2023-05-29T08:16:54;12.85;;;2.60;;
70757;SDS011;59316;52.964;7.102;2023-05-29T08:22:15;9.25;;;2.72;;
70757;SDS011;59316;52.964;7.102;2023-05-29T08:27:36;10.70;;;2.63;;
70757;SDS011;59316;52.964;7.102;2023-05-29T08:32:57;12.15;;;3.15;;
70757;SDS011;59316;52.964;7.102;2023-05-29T08:38:18;10.35;;;2.50;;
70757;SDS011;59316;52.964;7.102;2023-05-29T08:43:39;10.50;;;2.60;;
70757;SDS011;59316;52.964;7.102;2023-05-29T08:49:02;10.87;;;2.30;;
70757;SDS011;59316;52.964;7.102;2023-05-29T08:54:23;11.32;;;2.60;;
70757;SDS011;59316;52.964;7.102;2023-05-29T08:59:44;16.40;;;2.80;;
70757;SDS011;59316;52.964;7.102;2023-05-29T09:05:05;11.63;;;2.67;;
70757;SDS011;59316;52.964;7.102;2023-05-29T09:10:27;9.05;;;2.50;;
70757;SDS011;59316;52.964;7.102;2023-05-29T09:15:48;10.65;;;2.25;;
70757;SDS011;59316;52.964;7.102;2023-05-29T09:21:09;9.00;;;2.88;;
70757;SDS011;59316;52.964;7.102;2023-05-29T09:26:30;11.95;;;3.00;;
70757;SDS011;59316;52.964;7.102;2023-05-29T09:31:51;14.75;;;2.75;;
70757;SDS011;59316;52.964;7.102;2023-05-29T09:37:12;11.07;;;2.65;;
70757;SDS011;59316;52.964;7.102;2023-05-29T09:42:36;10.77;;;2.63;;
70757;SDS011;59316;52.964;7.102;2023-05-29T09:47:58;13.77;;;2.28;;
70757;SDS011;59316;52.964;7.102;2023-05-29T09:53:20;9.25;;;2.40;;
70757;SDS011;59316;52.964;7.102;2023-05-29T09:58:42;9.95;;;3.17;;
70757;SDS011;59316;52.964;7.102;2023-05-29T10:04:04;12.50;;;2.53;;
70757;SDS011;59316;52.964;7.102;2023-05-29T10:09:25;10.13;;;2.83;;
70757;SDS011;59316;52.964;7.102;2023-05-29T10:14:49;10.40;;;2.53;;
70757;SDS011;59316;52.964;7.102;2023-05-29T10:20:10;14.30;;;2.83;;
70757;SDS011;59316;52.964;7.102;2023-05-29T10:25:33;14.23;;;2.60;;
70757;SDS011;59316;52.964;7.102;2023-05-29T10:31:04;10.10;;;2.43;;
70757;SDS011;59316;52.964;7.102;2023-05-29T10:36:31;10.50;;;2.58;;
70757;SDS011;59316;52.964;7.102;2023-05-29T10:41:58;11.82;;;2.55;;
70757;SDS011;59316;52.964;7.102;2023-05-29T10:47:22;13.50;;;2.78;;
70757;SDS011;59316;52.964;7.102;2023-05-29T10:52:47;9.98;;;2.53;;
70757;SDS011;59316;52.964;7.102;2023-05-29T10:58:30;9.25;;;2.03;;
70757;SDS011;59316;52.964;7.102;2023-05-29T11:03:49;16.40;;;3.05;;
70757;SDS011;59316;52.964;7.102;2023-05-29T11:14:54;8.97;;;2.33;;
70757;SDS011;59316;52.964;7.102;2023-05-29T11:25:46;11.27;;;2.75;;
70757;SDS011;59316;52.964;7.102;2023-05-29T11:31:08;11.75;;;2.55;;
70757;SDS011;59316;52.964;7.102;2023-05-29T11:36:32;10.73;;;2.50;;
70757;SDS011;59316;52.964;7.102;2023-05-29T11:41:54;6.80;;;2.17;;
70757;SDS011;59316;52.964;7.102;2023-05-29T11:47:15;9.10;;;2.33;;
70757;SDS011;59316;52.964;7.102;2023-05-29T11:52:44;11.07;;;2.70;;
70757;SDS011;59316;52.964;7.102;2023-05-29T11:58:06;12.63;;;2.40;;
70757;SDS011;59316;52.964;7.102;2023-05-29T12:03:26;8.40;;;2.47;;
70757;SDS011;59316;52.964;7.102;2023-05-29T12:08:50;10.95;;;2.50;;
70757;SDS011;59316;52.964;7.102;2023-05-29T12:19:32;10.27;;;2.40;;
70757;SDS011;59316;52.964;7.102;2023-05-29T12:24:53;8.80;;;2.70;;
70757;SDS011;59316;52.964;7.102;2023-05-29T12:30:23;10.07;;;2.10;;
70757;SDS011;59316;52.964;7.102;2023-05-29T12:35:52;6.25;;;1.95;;
70757;SDS011;59316;52.964;7.102;2023-05-29T12:41:24;8.20;;;2.45;;
70757;SDS011;59316;52.964;7.102;2023-05-29T12:46:46;10.50;;;2.75;;
70757;SDS011;59316;52.964;7.102;2023-05-29T12:52:07;10.85;;;2.45;;
70757;SDS011;59316;52.964;7.102;2023-05-29T12:57:29;12.00;;;2.38;;
70757;SDS011;59316;52.964;7.102;2023-05-29T13:02:49;11.27;;;2.50;;
70757;SDS011;59316;52.964;7.102;2023-05-29T13:08:11;12.38;;;2.42;;
70757;SDS011;59316;52.964;7.102;2023-05-29T13:13:32;11.85;;;1.98;;
70757;SDS011;59316;52.964;7.102;2023-05-29T13:18:53;10.38;;;2.28;;
70757;SDS011;59316;52.964;7.102;2023-05-29T13:24:14;12.98;;;2.60;;
70757;SDS011;59316;52.964;7.102;2023-05-29T13:29:35;9.80;;;2.33;;
70757;SDS011;59316;52.964;7.102;2023-05-29T13:34:55;9.73;;;2.47;;
70757;SDS011;59316;52.964;7.102;2023-05-29T13:40:16;8.73;;;2.10;;
70757;SDS011;59316;52.964;7.102;2023-05-29T13:45:37;9.27;;;2.13;;
70757;SDS011;59316;52.964;7.102;2023-05-29T13:50:58;7.90;;;2.08;;
70757;SDS011;59316;52.964;7.102;2023-05-29T13:56:19;5.05;;;1.40;;
70757;SDS011;59316;52.964;7.102;2023-05-29T14:01:40;7.43;;;2.25;;
70757;SDS011;59316;52.964;7.102;2023-05-29T14:07:01;11.68;;;2.33;;
70757;SDS011;59316;52.964;7.102;2023-05-29T14:12:22;9.95;;;2.00;;
70757;SDS011;59316;52.964;7.102;2023-05-29T14:17:43;14.70;;;2.67;;
70757;SDS011;59316;52.964;7.102;2023-05-29T14:23:04;8.73;;;2.10;;
70757;SDS011;59316;52.964;7.102;2023-05-29T14:28:25;6.93;;;1.92;;
70757;SDS011;59316;52.964;7.102;2023-05-29T14:33:46;7.07;;;1.63;;
70757;SDS011;59316;52.964;7.102;2023-05-29T14:39:07;11.13;;;2.05;;
70757;SDS011;59316;52.964;7.102;2023-05-29T14:44:28;10.68;;;2.20;;
70757;SDS011;59316;52.964;7.102;2023-05-29T14:49:49;7.68;;;1.73;;
70757;SDS011;59316;52.964;7.102;2023-05-29T14:55:10;10.45;;;1.77;;
70757;SDS011;59316;52.964;7.102;2023-05-29T15:00:31;7.82;;;1.80;;
70757;SDS011;59316;52.964;7.102;2023-05-29T15:05:52;8.00;;;1.98;;
70757;SDS011;59316;52.964;7.102;2023-05-29T15:11:13;6.53;;;1.73;;
70757;SDS011;59316;52.964;7.102;2023-05-29T15:16:34;6.72;;;1.90;;
70757;SDS011;59316;52.964;7.102;2023-05-29T15:21:56;8.15;;;2.22;;
70757;SDS011;59316;52.964;7.102;2023-05-29T15:27:17;9.40;;;2.10;;
70757;SDS011;59316;52.964;7.102;2023-05-29T15:32:39;7.13;;;1.75;;
70757;SDS011;59316;52.964;7.102;2023-05-29T15:38:01;6.65;;;1.77;;
70757;SDS011;59316;52.964;7.102;2023-05-29T15:43:22;7.53;;;1.48;;
70757;SDS011;59316;52.964;7.102;2023-05-29T15:48:43;6.13;;;1.75;;
70757;SDS011;59316;52.964;7.102;2023-05-29T15:54:04;8.05;;;1.70;;
70757;SDS011;59316;52.964;7.102;2023-05-29T15:59:24;11.02;;;2.00;;
70757;SDS011;59316;52.964;7.102;2023-05-29T16:04:45;6.63;;;2.17;;
70757;SDS011;59316;52.964;7.102;2023-05-29T16:10:24;8.27;;;1.60;;
70757;SDS011;59316;52.964;7.102;2023-05-29T16:15:45;5.32;;;1.70;;
70757;SDS011;59316;52.964;7.102;2023-05-29T16:21:07;10.45;;;2.08;;
70757;SDS011;59316;52.964;7.102;2023-05-29T16:26:28;9.68;;;1.63;;
70757;SDS011;59316;52.964;7.102;2023-05-29T16:31:49;11.10;;;1.80;;
70757;SDS011;59316;52.964;7.102;2023-05-29T16:37:10;5.90;;;1.77;;
70757;SDS011;59316;52.964;7.102;2023-05-29T16:42:31;7.20;;;1.58;;
70757;SDS011;59316;52.964;7.102;2023-05-29T16:47:52;7.45;;;1.65;;
70757;SDS011;59316;52.964;7.102;2023-05-29T16:53:13;9.23;;;2.35;;
70757;SDS011;59316;52.964;7.102;2023-05-29T16:58:34;9.57;;;1.90;;
70757;SDS011;59316;52.964;7.102;2023-05-29T17:03:55;7.88;;;1.70;;
70757;SDS011;59316;52.964;7.102;2023-05-29T17:09:16;12.35;;;2.03;;
70757;SDS011;59316;52.964;7.102;2023-05-29T17:14:36;11.73;;;2.38;;
70757;SDS011;59316;52.964;7.102;2023-05-29T17:19:57;11.48;;;2.00;;
70757;SDS011;59316;52.964;7.102;2023-05-29T17:25:18;8.57;;;1.30;;
70757;SDS011;59316;52.964;7.102;2023-05-29T17:30:39;8.88;;;2.03;;
70757;SDS011;59316;52.964;7.102;2023-05-29T17:36:00;6.95;;;1.48;;
70757;SDS011;59316;52.964;7.102;2023-05-29T17:41:21;10.05;;;2.00;;
70757;SDS011;59316;52.964;7.102;2023-05-29T17:46:42;7.68;;;1.60;;
70757;SDS011;59316;52.964;7.102;2023-05-29T17:52:04;12.05;;;1.85;;
70757;SDS011;59316;52.964;7.102;2023-05-29T17:57:25;10.50;;;2.17;;
70757;SDS011;59316;52.964;7.102;2023-05-29T18:02:46;10.80;;;1.73;;
70757;SDS011;59316;52.964;7.102;2023-05-29T18:08:08;8.45;;;1.70;;
70757;SDS011;59316;52.964;7.102;2023-05-29T18:13:28;9.35;;;1.70;;
70757;SDS011;59316;52.964;7.102;2023-05-29T18:18:49;9.98;;;1.60;;
70757;SDS011;59316;52.964;7.102;2023-05-29T18:24:10;17.48;;;2.25;;
70757;SDS011;59316;52.964;7.102;2023-05-29T18:29:31;12.05;;;2.03;;
70757;SDS011;59316;52.964;7.102;2023-05-29T18:34:52;4.70;;;1.45;;
70757;SDS011;59316;52.964;7.102;2023-05-29T18:40:13;10.07;;;2.20;;
70757;SDS011;59316;52.964;7.102;2023-05-29T18:45:34;9.52;;;1.63;;
70757;SDS011;59316;52.964;7.102;2023-05-29T18:50:55;10.70;;;1.90;;
70757;SDS011;59316;52.964;7.102;2023-05-29T18:56:16;15.30;;;2.17;;
70757;SDS011;59316;52.964;7.102;2023-05-29T19:01:37;9.98;;;2.00;;
70757;SDS011;59316;52.964;7.102;2023-05-29T19:07:00;10.57;;;2.30;;
70757;SDS011;59316;52.964;7.102;2023-05-29T19:12:21;10.05;;;2.22;;
70757;SDS011;59316;52.964;7.102;2023-05-29T19:17:43;14.68;;;2.33;;
70757;SDS011;59316;52.964;7.102;2023-05-29T19:23:04;11.25;;;1.70;;
70757;SDS011;59316;52.964;7.102;2023-05-29T19:28:26;7.63;;;1.98;;
70757;SDS011;59316;52.964;7.102;2023-05-29T19:33:47;9.25;;;2.45;;
70757;SDS011;59316;52.964;7.102;2023-05-29T19:39:09;10.50;;;1.85;;
70757;SDS011;59316;52.964;7.102;2023-05-29T19:44:31;14.27;;;2.92;;
70757;SDS011;59316;52.964;7.102;2023-05-29T19:49:52;14.52;;;2.75;;
70757;SDS011;59316;52.964;7.102;2023-05-29T19:55:14;13.07;;;2.55;;
70757;SDS011;59316;52.964;7.102;2023-05-29T20:00:36;15.88;;;2.80;;
70757;SDS011;59316;52.964;7.102;2023-05-29T20:05:57;15.80;;;3.00;;
70757;SDS011;59316;52.964;7.102;2023-05-29T20:11:19;17.98;;;3.72;;
70757;SDS011;59316;52.964;7.102;2023-05-29T20:16:40;14.55;;;3.13;;
70757;SDS011;59316;52.964;7.102;2023-05-29T20:22:02;12.80;;;2.40;;
70757;SDS011;59316;52.964;7.102;2023-05-29T20:27:24;13.25;;;2.60;;
70757;SDS011;59316;52.964;7.102;2023-05-29T20:32:45;21.52;;;2.88;;
70757;SDS011;59316;52.964;7.102;2023-05-29T20:38:07;12.25;;;2.90;;
70757;SDS011;59316;52.964;7.102;2023-05-29T20:43:28;12.63;;;2.55;;
70757;SDS011;59316;52.964;7.102;2023-05-29T20:48:50;20.63;;;4.65;;
70757;SDS011;59316;52.964;7.102;2023-05-29T20:54:11;10.73;;;2.78;;
70757;SDS011;59316;52.964;7.102;2023-05-29T20:59:33;9.82;;;2.60;;
70757;SDS011;59316;52.964;7.102;2023-05-29T21:04:54;14.32;;;2.70;;
70757;SDS011;59316;52.964;7.102;2023-05-29T21:10:16;17.33;;;3.47;;
70757;SDS011;59316;52.964;7.102;2023-05-29T21:15:37;12.98;;;2.72;;
70757;SDS011;59316;52.964;7.102;2023-05-29T21:20:59;11.60;;;3.00;;
70757;SDS011;59316;52.964;7.102;2023-05-29T21:26:20;20.50;;;3.65;;
70757;SDS011;59316;52.964;7.102;2023-05-29T21:31:42;18.75;;;3.60;;
70757;SDS011;59316;52.964;7.102;2023-05-29T21:37:03;21.35;;;3.80;;
70757;SDS011;59316;52.964;7.102;2023-05-29T21:42:25;18.40;;;4.10;;
70757;SDS011;59316;52.964;7.102;2023-05-29T21:47:47;17.20;;;3.55;;
70757;SDS011;59316;52.964;7.102;2023-05-29T21:53:09;13.95;;;3.55;;
70757;SDS011;59316;52.964;7.102;2023-05-29T21:58:30;13.02;;;3.13;;
70757;SDS011;59316;52.964;7.102;2023-05-29T22:03:51;16.05;;;3.10;;
70757;SDS011;59316;52.964;7.102;2023-05-29T22:09:12;18.90;;;3.33;;
70757;SDS011;59316;52.964;7.102;2023-05-29T22:14:34;12.25;;;3.65;;
70757;SDS011;59316;52.964;7.102;2023-05-29T22:19:56;8.05;;;3.20;;
70757;SDS011;59316;52.964;7.102;2023-05-29T22:25:17;17.05;;;3.63;;
70757;SDS011;59316;52.964;7.102;2023-05-29T22:30:39;15.18;;;3.58;;
70757;SDS011;59316;52.964;7.102;2023-05-29T22:36:00;15.02;;;3.65;;
70757;SDS011;59316;52.964;7.102;2023-05-29T22:41:22;20.13;;;3.80;;
70757;SDS011;59316;52.964;7.102;2023-05-29T22:46:43;17.75;;;3.53;;
70757;SDS011;59316;52.964;7.102;2023-05-29T22:52:05;13.50;;;3.22;;
70757;SDS011;59316;52.964;7.102;2023-05-29T22:57:27;11.95;;;3.05;;
70757;SDS011;59316;52.964;7.102;2023-05-29T23:02:48;11.63;;;3.33;;
70757;SDS011;59316;52.964;7.102;2023-05-29T23:08:10;10.15;;;3.58;;
70757;SDS011;59316;52.964;7.102;2023-05-29T23:13:31;10.02;;;3.30;;
70757;SDS011;59316;52.964;7.102;2023-05-29T23:18:53;12.98;;;3.45;;
70757;SDS011;59316;52.964;7.102;2023-05-29T23:24:14;14.77;;;3.42;;
70757;SDS011;59316;52.964;7.102;2023-05-29T23:29:36;15.70;;;3.50;;
70757;SDS011;59316;52.964;7.102;2023-05-29T23:34:57;14.38;;;3.30;;
70757;SDS011;59316;52.964;7.102;2023-05-29T23:40:19;14.27;;;3.03;;
70757;SDS011;59316;52.964;7.102;2023-05-29T23:45:40;12.30;;;3.17;;
70757;SDS011;59316;52.964;7.102;2023-05-29T23:51:02;16.58;;;3.45;;
70757;SDS011;59316;52.964;7.102;2023-05-29T23:56:25;13.75;;;3.72;;
